Time,TemperatureF,DewpointF,PressureIn,WindDirection,WindDirectionDegrees,WindSpeedMPH,WindSpeedGustMPH,Humidity,HourlyPrecipIn,Conditions,Clouds,dailyrainin,SoftwareType,DateUTC
2013-09-30 00:00:00,59.9,57.3,29.98,South,177,0.0,0.0,91,0.00,,SKC,0.00,VWS V13.00,2013-09-30 05:00:00,
2013-09-30 00:02:00,59.9,57.3,29.98,South,177,0.0,0.0,91,0.00,,SKC,0.00,VWS V13.00,2013-09-30 05:02:00,
2013-09-30 00:07:00,59.6,57.0,29.98,South,177,0.0,0.0,91,0.00,,SKC,0.00,VWS V13.00,2013-09-30 05:07:00,
2013-09-30 00:12:00,59.4,57.1,29.98,South,177,0.0,0.0,92,0.00,,SKC,0.00,VWS V13.00,2013-09-30 05:12:00,
2013-09-30 00:17:00,59.2,56.9,29.98,South,177,0.0,0.0,92,0.00,,SKC,0.00,VWS V13.00,2013-09-30 05:17:00,
2013-09-30 00:22:00,59.1,57.1,29.98,South,177,0.0,0.0,93,0.00,,SKC,0.00,VWS V13.00,2013-09-30 05:22:00,
2013-09-30 00:26:00,59.0,57.0,29.98,South,177,0.0,1.0,93,0.00,,SKC,0.00,VWS V13.00,2013-09-30 05:26:00,
2013-09-30 00:30:00,59.0,57.0,29.98,South,177,0.0,1.0,93,0.00,,SKC,0.00,VWS V13.00,2013-09-30 05:30:00,
2013-09-30 00:31:00,59.0,57.0,29.98,South,177,0.0,1.0,93,0.00,,SKC,0.00,VWS V13.00,2013-09-30 05:31:00,
2013-09-30 00:37:00,58.9,56.9,29.98,South,177,0.0,0.0,93,0.00,,SKC,0.00,VWS V13.00,2013-09-30 05:37:00,
2013-09-30 00:42:00,58.7,56.7,29.98,South,177,0.0,0.0,93,0.00,,SKC,0.00,VWS V13.00,2013-09-30 05:42:00,
2013-09-30 00:47:00,58.6,56.9,29.98,South,177,0.0,0.0,94,0.00,,SKC,0.00,VWS V13.00,2013-09-30 05:47:00,
2013-09-30 00:52:00,58.3,56.3,29.98,SSE,157,0.0,2.0,93,0.00,,SKC,0.00,VWS V13.00,2013-09-30 05:52:00,
2013-09-30 00:57:00,58.1,56.4,29.98,SSE,148,0.0,2.0,94,0.00,,SKC,0.00,VWS V13.00,2013-09-30 05:57:00,
2013-09-30 01:00:00,58.0,56.3,29.98,SSE,148,0.0,2.0,94,0.00,,SKC,0.00,VWS V13.00,2013-09-30 06:00:00,
2013-09-30 01:02:00,58.0,56.3,29.98,SSE,148,0.0,2.0,94,0.00,,SKC,0.00,VWS V13.00,2013-09-30 06:02:00,
2013-09-30 01:07:00,58.0,56.3,29.98,SSE,148,0.0,0.0,94,0.00,,SKC,0.00,VWS V13.00,2013-09-30 06:07:00,
2013-09-30 01:12:00,58.1,56.4,29.98,SSE,148,0.0,0.0,94,0.00,,SKC,0.00,VWS V13.00,2013-09-30 06:12:00,
2013-09-30 01:17:00,58.0,56.3,29.98,SSE,148,0.0,0.0,94,0.00,,SKC,0.00,VWS V13.00,2013-09-30 06:17:00,
2013-09-30 01:22:00,57.8,55.8,29.98,SSE,148,0.0,0.0,93,0.00,,SKC,0.00,VWS V13.00,2013-09-30 06:22:00,
2013-09-30 01:27:00,57.7,56.0,29.98,SSE,148,0.0,0.0,94,0.00,,SKC,0.00,VWS V13.00,2013-09-30 06:27:00,
2013-09-30 01:30:00,57.5,55.8,29.98,SSE,148,0.0,0.0,94,0.00,,SKC,0.00,VWS V13.00,2013-09-30 06:30:00,
2013-09-30 01:32:00,57.5,55.8,29.98,SSE,148,0.0,0.0,94,0.00,,SKC,0.00,VWS V13.00,2013-09-30 06:32:00,
2013-09-30 01:37:00,57.4,56.0,29.98,SSE,148,0.0,0.0,95,0.00,,SKC,0.00,VWS V13.00,2013-09-30 06:37:00,
2013-09-30 01:42:00,57.3,55.9,29.98,SSE,148,0.0,0.0,95,0.00,,SKC,0.00,VWS V13.00,2013-09-30 06:42:00,
2013-09-30 01:47:00,57.4,56.0,29.98,SSE,148,0.0,0.0,95,0.00,,SKC,0.00,VWS V13.00,2013-09-30 06:47:00,
2013-09-30 01:52:00,57.4,56.0,29.98,SSE,148,0.0,0.0,95,0.00,,SKC,0.00,VWS V13.00,2013-09-30 06:52:00,
2013-09-30 01:57:00,57.7,56.6,29.98,SSE,148,0.0,0.0,96,0.00,,SKC,0.00,VWS V13.00,2013-09-30 06:57:00,
2013-09-30 02:00:00,57.8,56.7,29.98,SSE,148,0.0,0.0,96,0.00,,SKC,0.00,VWS V13.00,2013-09-30 07:00:00,
2013-09-30 02:02:00,57.8,56.7,29.98,SSE,148,0.0,0.0,96,0.00,,SKC,0.00,VWS V13.00,2013-09-30 07:02:00,
2013-09-30 02:07:00,57.8,56.7,29.98,SSE,148,0.0,0.0,96,0.00,,SKC,0.00,VWS V13.00,2013-09-30 07:07:00,
2013-09-30 02:12:00,58.1,57.0,29.98,SSE,148,0.0,1.0,96,0.00,,SKC,0.00,VWS V13.00,2013-09-30 07:12:00,
2013-09-30 02:17:00,58.5,57.1,29.98,SSE,148,0.0,1.0,95,0.00,,SKC,0.00,VWS V13.00,2013-09-30 07:17:00,
2013-09-30 02:22:00,58.9,57.2,29.98,SSE,148,0.0,1.0,94,0.00,,SKC,0.00,VWS V13.00,2013-09-30 07:22:00,
2013-09-30 02:27:00,59.1,57.4,29.98,SSE,148,0.0,1.0,94,0.00,,SKC,0.00,VWS V13.00,2013-09-30 07:27:00,
2013-09-30 02:30:00,59.3,57.6,29.98,SSE,148,0.0,1.0,94,0.00,,SKC,0.00,VWS V13.00,2013-09-30 07:30:00,
2013-09-30 02:32:00,59.3,57.6,29.98,SSE,148,0.0,0.0,94,0.00,,SKC,0.00,VWS V13.00,2013-09-30 07:32:00,
2013-09-30 02:37:00,59.5,57.8,29.97,SSE,148,0.0,1.0,94,0.00,,SKC,0.00,VWS V13.00,2013-09-30 07:37:00,
2013-09-30 02:42:00,59.6,57.6,29.97,SSE,148,1.0,1.0,93,0.00,,SKC,0.00,VWS V13.00,2013-09-30 07:42:00,
2013-09-30 02:47:00,59.8,57.8,29.97,SSE,148,0.0,1.0,93,0.00,,SKC,0.00,VWS V13.00,2013-09-30 07:47:00,
2013-09-30 02:52:00,60.0,58.0,29.97,SE,135,2.0,2.0,93,0.00,,SKC,0.00,VWS V13.00,2013-09-30 07:52:00,
2013-09-30 02:57:00,60.2,57.9,29.97,SE,134,0.0,3.0,92,0.00,,SKC,0.00,VWS V13.00,2013-09-30 07:57:00,
2013-09-30 03:00:00,60.5,57.9,29.97,ESE,111,0.0,5.0,91,0.00,,SKC,0.00,VWS V13.00,2013-09-30 08:00:00,
2013-09-30 03:02:00,60.5,57.9,29.97,ESE,111,0.0,5.0,91,0.00,,SKC,0.00,VWS V13.00,2013-09-30 08:02:00,
2013-09-30 03:07:00,60.7,58.1,29.96,ESE,122,0.0,5.0,91,0.00,,SKC,0.00,VWS V13.00,2013-09-30 08:07:00,
2013-09-30 03:12:00,60.8,57.8,29.97,ESE,117,0.0,5.0,90,0.00,,SKC,0.00,VWS V13.00,2013-09-30 08:12:00,
2013-09-30 03:17:00,60.9,58.0,29.97,ESE,120,0.0,5.0,90,0.00,,SKC,0.00,VWS V13.00,2013-09-30 08:17:00,
2013-09-30 03:22:00,61.0,58.0,29.97,ESE,109,0.0,5.0,90,0.00,,SKC,0.00,VWS V13.00,2013-09-30 08:22:00,
2013-09-30 03:27:00,61.1,58.2,29.97,ESE,104,1.0,5.0,90,0.00,,SKC,0.00,VWS V13.00,2013-09-30 08:27:00,
2013-09-30 03:30:00,61.1,58.2,29.97,East,100,0.0,5.0,90,0.00,,SKC,0.00,VWS V13.00,2013-09-30 08:30:00,
2013-09-30 03:32:00,61.1,58.2,29.97,East,100,0.0,5.0,90,0.00,,SKC,0.00,VWS V13.00,2013-09-30 08:32:00,
2013-09-30 03:37:00,61.1,58.2,29.97,SSE,157,4.0,5.0,90,0.00,,SKC,0.00,VWS V13.00,2013-09-30 08:37:00,
2013-09-30 03:42:00,61.1,58.2,29.97,ESE,105,1.0,5.0,90,0.00,,SKC,0.00,VWS V13.00,2013-09-30 08:42:00,
2013-09-30 03:47:00,61.2,58.2,29.97,East,98,1.0,5.0,90,0.00,,SKC,0.00,VWS V13.00,2013-09-30 08:47:00,
2013-09-30 03:52:00,61.2,58.2,29.97,ESE,106,1.0,5.0,90,0.00,,SKC,0.00,VWS V13.00,2013-09-30 08:52:00,
2013-09-30 03:57:00,61.1,58.2,29.97,East,97,1.0,5.0,90,0.00,,SKC,0.00,VWS V13.00,2013-09-30 08:57:00,
2013-09-30 04:00:00,61.1,58.2,29.97,East,100,1.0,5.0,90,0.00,,SKC,0.00,VWS V13.00,2013-09-30 09:00:00,
2013-09-30 04:02:00,61.1,58.2,29.97,East,98,1.0,2.0,90,0.00,,SKC,0.00,VWS V13.00,2013-09-30 09:02:00,
2013-09-30 04:07:00,61.0,58.0,29.97,East,99,1.0,4.0,90,0.00,,SKC,0.00,VWS V13.00,2013-09-30 09:07:00,
2013-09-30 04:12:00,60.9,58.3,29.98,East,99,0.0,4.0,91,0.00,,SKC,0.00,VWS V13.00,2013-09-30 09:12:00,
2013-09-30 04:17:00,60.9,58.3,29.98,East,99,0.0,4.0,91,0.00,,SKC,0.00,VWS V13.00,2013-09-30 09:17:00,
2013-09-30 04:22:00,60.9,58.0,29.98,ESE,114,0.0,4.0,90,0.00,,SKC,0.00,VWS V13.00,2013-09-30 09:22:00,
2013-09-30 04:27:00,60.9,58.3,29.98,ESE,114,0.0,4.0,91,0.00,,SKC,0.00,VWS V13.00,2013-09-30 09:27:00,
2013-09-30 04:30:00,61.0,58.4,29.98,ESE,114,0.0,4.0,91,0.00,,SKC,0.00,VWS V13.00,2013-09-30 09:30:00,
2013-09-30 04:32:00,61.0,58.4,29.98,ESE,114,0.0,0.0,91,0.00,,SKC,0.00,VWS V13.00,2013-09-30 09:32:00,
2013-09-30 04:37:00,61.0,58.4,29.98,ESE,114,0.0,1.0,91,0.00,,SKC,0.00,VWS V13.00,2013-09-30 09:37:00,
2013-09-30 04:42:00,61.0,58.7,29.98,ESE,114,0.0,1.0,92,0.00,,SKC,0.00,VWS V13.00,2013-09-30 09:42:00,
2013-09-30 04:47:00,60.9,58.6,29.98,ESE,114,0.0,1.0,92,0.00,,SKC,0.00,VWS V13.00,2013-09-30 09:47:00,
2013-09-30 04:52:00,60.9,58.6,29.98,ESE,114,0.0,2.0,92,0.00,,SKC,0.00,VWS V13.00,2013-09-30 09:52:00,
2013-09-30 04:57:00,60.8,58.5,29.98,ESE,114,0.0,2.0,92,0.00,,SKC,0.00,VWS V13.00,2013-09-30 09:57:00,
2013-09-30 05:00:00,60.7,58.4,29.98,ESE,113,1.0,3.0,92,0.00,,SKC,0.00,VWS V13.00,2013-09-30 10:00:00,
2013-09-30 05:02:00,60.7,58.4,29.98,ESE,113,1.0,1.0,92,0.00,,SKC,0.00,VWS V13.00,2013-09-30 10:02:00,
2013-09-30 05:07:00,60.7,58.4,29.99,ESE,112,1.0,3.0,92,0.00,,SKC,0.00,VWS V13.00,2013-09-30 10:07:00,
2013-09-30 05:12:00,60.8,58.5,29.99,ESE,104,0.0,3.0,92,0.00,,SKC,0.00,VWS V13.00,2013-09-30 10:12:00,
2013-09-30 05:17:00,60.8,58.5,29.99,ESE,104,0.0,3.0,92,0.00,,SKC,0.00,VWS V13.00,2013-09-30 10:17:00,
2013-09-30 05:22:00,60.9,58.3,29.99,ESE,113,1.0,3.0,91,0.00,,SKC,0.00,VWS V13.00,2013-09-30 10:22:00,
2013-09-30 05:27:00,61.0,58.4,29.99,East,98,1.0,4.0,91,0.00,,SKC,0.00,VWS V13.00,2013-09-30 10:27:00,
2013-09-30 05:30:00,61.1,58.5,29.99,East,97,0.0,4.0,91,0.00,,SKC,0.00,VWS V13.00,2013-09-30 10:30:00,
2013-09-30 05:32:00,61.1,58.5,29.99,East,97,0.0,0.0,91,0.00,,SKC,0.00,VWS V13.00,2013-09-30 10:32:00,
2013-09-30 05:37:00,61.1,58.5,29.99,ESE,105,5.0,5.0,91,0.00,,SKC,0.00,VWS V13.00,2013-09-30 10:37:00,
2013-09-30 05:42:00,61.2,58.2,29.99,ESE,119,0.0,6.0,90,0.00,,SKC,0.00,VWS V13.00,2013-09-30 10:42:00,
2013-09-30 05:47:00,61.3,58.3,29.99,ESE,103,3.0,6.0,90,0.00,,SKC,0.00,VWS V13.00,2013-09-30 10:47:00,
2013-09-30 05:52:00,61.3,58.3,29.99,SE,131,0.0,6.0,90,0.00,,SKC,0.00,VWS V13.00,2013-09-30 10:52:00,
2013-09-30 05:57:00,61.4,58.1,30.00,SE,127,0.0,6.0,89,0.00,,SKC,0.00,VWS V13.00,2013-09-30 10:57:00,
2013-09-30 06:00:00,61.4,58.1,30.00,SE,139,5.0,6.0,89,0.00,,SKC,0.00,VWS V13.00,2013-09-30 11:00:00,
2013-09-30 06:02:00,61.4,58.1,30.00,SE,136,5.0,5.0,89,0.00,,SKC,0.00,VWS V13.00,2013-09-30 11:02:00,
2013-09-30 06:07:00,61.5,58.2,30.00,ESE,121,0.0,5.0,89,0.00,,SKC,0.00,VWS V13.00,2013-09-30 11:07:00,
2013-09-30 06:12:00,61.5,58.2,30.00,East,95,0.0,5.0,89,0.00,,SKC,0.00,VWS V13.00,2013-09-30 11:12:00,
2013-09-30 06:17:00,61.5,58.2,30.00,SE,131,0.0,5.0,89,0.00,,SKC,0.00,VWS V13.00,2013-09-30 11:17:00,
2013-09-30 06:22:00,61.5,58.2,30.00,SE,142,2.0,6.0,89,0.00,,SKC,0.00,VWS V13.00,2013-09-30 11:22:00,
2013-09-30 06:27:00,61.6,58.3,30.00,SE,133,1.0,6.0,89,0.00,,SKC,0.00,VWS V13.00,2013-09-30 11:27:00,
2013-09-30 06:30:00,61.6,58.0,30.01,ESE,116,0.0,6.0,88,0.00,,SKC,0.00,VWS V13.00,2013-09-30 11:30:00,
2013-09-30 06:32:00,61.6,58.0,30.00,ESE,116,0.0,0.0,88,0.00,,SKC,0.00,VWS V13.00,2013-09-30 11:32:00,
2013-09-30 06:37:00,61.6,58.0,30.01,ESE,119,1.0,4.0,88,0.00,,SKC,0.00,VWS V13.00,2013-09-30 11:37:00,
2013-09-30 06:42:00,61.6,58.0,30.01,SE,127,0.0,4.0,88,0.00,,SKC,0.00,VWS V13.00,2013-09-30 11:42:00,
2013-09-30 06:47:00,61.6,58.0,30.01,SE,144,0.0,6.0,88,0.00,,SKC,0.00,VWS V13.00,2013-09-30 11:47:00,
2013-09-30 06:52:00,61.6,58.0,30.01,SE,134,5.0,6.0,88,0.00,,SKC,0.00,VWS V13.00,2013-09-30 11:52:00,
2013-09-30 06:57:00,61.6,58.0,30.01,SE,136,5.0,6.0,88,0.00,,SKC,0.00,VWS V13.00,2013-09-30 11:57:00,
2013-09-30 07:00:00,61.6,58.0,30.01,SE,135,2.0,6.0,88,0.00,,SKC,0.00,VWS V13.00,2013-09-30 12:00:00,
2013-09-30 07:02:00,61.6,58.0,30.01,SE,135,2.0,6.0,88,0.00,,SKC,0.00,VWS V13.00,2013-09-30 12:02:00,
2013-09-30 07:07:00,61.6,58.0,30.01,ESE,116,1.0,4.0,88,0.00,,SKC,0.00,VWS V13.00,2013-09-30 12:07:00,
2013-09-30 07:12:00,61.6,58.0,30.02,SSE,157,0.0,5.0,88,0.00,,SKC,0.00,VWS V13.00,2013-09-30 12:12:00,
2013-09-30 07:17:00,61.7,58.1,30.02,SSE,153,0.0,5.0,88,0.00,,SKC,0.00,VWS V13.00,2013-09-30 12:17:00,
2013-09-30 07:22:00,61.7,58.1,30.02,SSE,161,4.0,5.0,88,0.00,,SKC,0.00,VWS V13.00,2013-09-30 12:22:00,
2013-09-30 07:27:00,61.8,58.2,30.02,SSE,159,0.0,5.0,88,0.00,,SKC,0.00,VWS V13.00,2013-09-30 12:27:00,
2013-09-30 07:30:00,61.9,58.0,30.02,ESE,115,0.0,5.0,87,0.00,,SKC,0.00,VWS V13.00,2013-09-30 12:30:00,
2013-09-30 07:32:00,61.9,58.0,30.02,ESE,113,1.0,1.0,87,0.00,,SKC,0.00,VWS V13.00,2013-09-30 12:32:00,
2013-09-30 07:37:00,62.0,58.4,30.02,ESE,112,0.0,2.0,88,0.00,,SKC,0.00,VWS V13.00,2013-09-30 12:37:00,
2013-09-30 07:42:00,62.1,58.5,30.02,East,100,0.0,2.0,88,0.00,,SKC,0.00,VWS V13.00,2013-09-30 12:42:00,
2013-09-30 07:47:00,62.2,58.3,30.03,SE,144,0.0,4.0,87,0.00,,SKC,0.00,VWS V13.00,2013-09-30 12:47:00,
2013-09-30 07:52:00,62.3,58.7,30.03,SE,132,0.0,4.0,88,0.00,,SKC,0.00,VWS V13.00,2013-09-30 12:52:00,
2013-09-30 07:57:00,62.3,58.4,30.03,ESE,115,1.0,4.0,87,0.00,,SKC,0.00,VWS V13.00,2013-09-30 12:57:00,
2013-09-30 08:00:00,62.3,58.4,30.03,SE,136,1.0,5.0,87,0.00,,SKC,0.00,VWS V13.00,2013-09-30 13:00:00,
2013-09-30 08:02:00,62.4,58.5,30.03,SE,136,0.0,0.0,87,0.00,,SKC,0.00,VWS V13.00,2013-09-30 13:02:00,
2013-09-30 08:07:00,62.4,58.5,30.03,SE,144,1.0,4.0,87,0.00,,SKC,0.00,VWS V13.00,2013-09-30 13:07:00,
2013-09-30 08:12:00,62.5,58.9,30.03,SE,142,0.0,4.0,88,0.00,,SKC,0.00,VWS V13.00,2013-09-30 13:12:00,
2013-09-30 08:17:00,62.6,58.7,30.03,SE,131,0.0,4.0,87,0.00,,SKC,0.00,VWS V13.00,2013-09-30 13:17:00,
2013-09-30 08:22:00,62.7,59.1,30.04,SSE,153,0.0,4.0,88,0.00,,SKC,0.00,VWS V13.00,2013-09-30 13:22:00,
2013-09-30 08:27:00,62.7,58.8,30.04,ESE,123,0.0,5.0,87,0.00,,SKC,0.00,VWS V13.00,2013-09-30 13:27:00,
2013-09-30 08:30:00,62.8,59.2,30.03,ESE,118,0.0,5.0,88,0.00,,SKC,0.00,VWS V13.00,2013-09-30 13:30:00,
2013-09-30 08:32:00,62.8,58.9,30.04,ESE,118,0.0,0.0,87,0.00,,SKC,0.00,VWS V13.00,2013-09-30 13:32:00,
2013-09-30 08:37:00,63.0,59.1,30.03,ESE,107,2.0,4.0,87,0.00,,SKC,0.00,VWS V13.00,2013-09-30 13:37:00,
2013-09-30 08:42:00,63.1,58.8,30.03,SSE,161,3.0,8.0,86,0.00,,SKC,0.00,VWS V13.00,2013-09-30 13:42:00,
2013-09-30 08:47:00,63.3,59.0,30.03,ESE,123,0.0,8.0,86,0.00,,SKC,0.00,VWS V13.00,2013-09-30 13:47:00,
2013-09-30 08:52:00,63.5,59.2,30.03,ESE,105,6.0,8.0,86,0.00,,SKC,0.00,VWS V13.00,2013-09-30 13:52:00,
2013-09-30 08:57:00,63.7,58.8,30.03,SSE,148,0.0,8.0,84,0.00,,SKC,0.00,VWS V13.00,2013-09-30 13:57:00,
2013-09-30 09:00:00,63.9,59.3,30.04,SE,146,1.0,9.0,85,0.00,,SKC,0.00,VWS V13.00,2013-09-30 14:00:00,
2013-09-30 09:02:00,63.9,59.3,30.04,SE,143,2.0,2.0,85,0.00,,SKC,0.00,VWS V13.00,2013-09-30 14:02:00,
2013-09-30 09:07:00,64.1,59.5,30.04,SSE,153,7.0,8.0,85,0.00,,SKC,0.00,VWS V13.00,2013-09-30 14:07:00,
2013-09-30 09:12:00,64.3,59.4,30.05,SE,139,6.0,8.0,84,0.00,,SKC,0.00,VWS V13.00,2013-09-30 14:12:00,
2013-09-30 09:17:00,64.4,59.5,30.04,SE,126,4.0,8.0,84,0.00,,SKC,0.00,VWS V13.00,2013-09-30 14:17:00,
2013-09-30 09:22:00,64.6,59.3,30.04,SE,146,2.0,8.0,83,0.00,,SKC,0.00,VWS V13.00,2013-09-30 14:22:00,
2013-09-30 09:27:00,64.8,59.5,30.04,SE,140,1.0,9.0,83,0.00,,SKC,0.00,VWS V13.00,2013-09-30 14:27:00,
2013-09-30 09:30:00,64.9,59.3,30.04,SSE,166,2.0,9.0,82,0.00,,SKC,0.00,VWS V13.00,2013-09-30 14:30:00,
2013-09-30 09:32:00,64.9,59.3,30.04,SSE,166,2.0,2.0,82,0.00,,SKC,0.00,VWS V13.00,2013-09-30 14:32:00,
2013-09-30 09:37:00,65.1,59.1,30.04,ESE,123,1.0,8.0,81,0.00,,SKC,0.00,VWS V13.00,2013-09-30 14:37:00,
2013-09-30 09:42:00,65.2,59.2,30.04,SE,133,6.0,8.0,81,0.00,,SKC,0.00,VWS V13.00,2013-09-30 14:42:00,
2013-09-30 09:47:00,65.4,59.4,30.04,South,171,8.0,11.0,81,0.00,,SKC,0.00,VWS V13.00,2013-09-30 14:47:00,
2013-09-30 09:52:00,65.6,59.3,30.03,SE,144,0.0,11.0,80,0.00,,SKC,0.00,VWS V13.00,2013-09-30 14:52:00,
2013-09-30 09:57:00,65.9,59.2,30.03,SE,142,7.0,11.0,79,0.00,,SKC,0.00,VWS V13.00,2013-09-30 14:57:00,
2013-09-30 10:00:00,66.0,59.3,30.03,SE,141,2.0,11.0,79,0.00,,SKC,0.00,VWS V13.00,2013-09-30 15:00:00,
2013-09-30 10:02:00,66.0,59.3,30.03,South,182,7.0,7.0,79,0.00,,SKC,0.00,VWS V13.00,2013-09-30 15:02:00,
2013-09-30 10:07:00,66.1,59.8,30.03,South,181,6.0,8.0,80,0.00,,SKC,0.00,VWS V13.00,2013-09-30 15:07:00,
2013-09-30 10:12:00,66.4,59.7,30.04,SE,132,5.0,8.0,79,0.00,,SKC,0.00,VWS V13.00,2013-09-30 15:12:00,
2013-09-30 10:17:00,66.7,59.6,30.04,SSE,148,2.0,8.0,78,0.00,,SKC,0.00,VWS V13.00,2013-09-30 15:17:00,
2013-09-30 10:22:00,67.0,59.9,30.04,SSE,168,1.0,9.0,78,0.00,,SKC,0.00,VWS V13.00,2013-09-30 15:22:00,
2013-09-30 10:27:00,67.2,60.5,30.04,SE,144,2.0,9.0,79,0.00,,SKC,0.00,VWS V13.00,2013-09-30 15:27:00,
2013-09-30 10:30:00,67.2,59.8,30.05,South,178,4.0,9.0,77,0.00,,SKC,0.00,VWS V13.00,2013-09-30 15:30:00,
2013-09-30 10:32:00,67.2,59.8,30.04,South,183,6.0,6.0,77,0.00,,SKC,0.00,VWS V13.00,2013-09-30 15:32:00,
2013-09-30 10:37:00,67.3,59.8,30.04,SSE,159,5.0,6.0,77,0.00,,SKC,0.00,VWS V13.00,2013-09-30 15:37:00,
2013-09-30 10:42:00,67.6,60.9,30.04,SSW,196,0.0,6.0,79,0.00,,SKC,0.00,VWS V13.00,2013-09-30 15:42:00,
2013-09-30 10:47:00,68.1,61.0,30.04,SE,135,3.0,6.0,78,0.00,,SKC,0.00,VWS V13.00,2013-09-30 15:47:00,
2013-09-30 10:52:00,68.5,60.6,30.04,SSE,167,0.0,6.0,76,0.00,,SKC,0.00,VWS V13.00,2013-09-30 15:52:00,
2013-09-30 10:57:00,68.9,60.7,30.03,SSW,198,5.0,6.0,75,0.00,,SKC,0.00,VWS V13.00,2013-09-30 15:57:00,
2013-09-30 11:00:00,69.0,60.8,30.03,ESE,123,0.0,7.0,75,0.00,,SKC,0.00,VWS V13.00,2013-09-30 16:00:00,
2013-09-30 11:02:00,69.1,60.8,30.04,ESE,123,1.0,1.0,75,0.00,,SKC,0.00,VWS V13.00,2013-09-30 16:02:00,
2013-09-30 11:07:00,69.3,60.7,30.03,South,184,3.0,3.0,74,0.00,,SKC,0.00,VWS V13.00,2013-09-30 16:07:00,
2013-09-30 11:12:00,69.4,60.4,30.03,South,173,2.0,7.0,73,0.00,,SKC,0.00,VWS V13.00,2013-09-30 16:12:00,
2013-09-30 11:17:00,69.2,60.2,30.04,SSW,204,5.0,10.0,73,0.00,,SKC,0.00,VWS V13.00,2013-09-30 16:17:00,
2013-09-30 11:22:00,69.0,60.0,30.04,South,176,5.0,11.0,73,0.00,,SKC,0.00,VWS V13.00,2013-09-30 16:22:00,
2013-09-30 11:27:00,69.2,60.6,30.03,South,190,2.0,11.0,74,0.00,,SKC,0.00,VWS V13.00,2013-09-30 16:27:00,
2013-09-30 11:30:00,69.7,60.3,30.03,SSW,200,7.0,11.0,72,0.00,,SKC,0.00,VWS V13.00,2013-09-30 16:30:00,
2013-09-30 11:32:00,69.7,60.3,30.03,SW,226,6.0,8.0,72,0.00,,SKC,0.00,VWS V13.00,2013-09-30 16:32:00,
2013-09-30 11:37:00,69.8,59.6,30.03,SW,215,2.0,10.0,70,0.00,,SKC,0.00,VWS V13.00,2013-09-30 16:37:00,
2013-09-30 11:42:00,69.9,60.1,30.03,South,178,1.0,10.0,71,0.00,,SKC,0.00,VWS V13.00,2013-09-30 16:42:00,
2013-09-30 11:47:00,69.9,60.1,30.03,SE,143,0.0,10.0,71,0.00,,SKC,0.00,VWS V13.00,2013-09-30 16:47:00,
2013-09-30 11:52:00,70.2,60.8,30.03,SW,223,4.0,10.0,72,0.00,,SKC,0.00,VWS V13.00,2013-09-30 16:52:00,
2013-09-30 11:57:00,70.5,60.7,30.03,SSW,199,4.0,10.0,71,0.00,,SKC,0.00,VWS V13.00,2013-09-30 16:57:00,
2013-09-30 12:00:00,70.6,60.3,30.03,SSW,202,4.0,10.0,70,0.00,,SKC,0.00,VWS V13.00,2013-09-30 17:00:00,
2013-09-30 12:03:00,70.6,60.3,30.03,South,171,6.0,10.0,70,0.00,,SKC,0.00,VWS V13.00,2013-09-30 17:03:00,
2013-09-30 12:08:00,70.6,60.3,30.03,South,171,6.0,10.0,70,0.00,,SKC,0.00,VWS V13.00,2013-09-30 17:08:00,
2013-09-30 12:13:00,70.6,60.3,30.03,South,171,6.0,10.0,70,0.00,,SKC,0.00,VWS V13.00,2013-09-30 17:13:00,
2013-09-30 12:18:00,70.6,60.3,30.03,South,171,6.0,10.0,70,0.00,,SKC,0.00,VWS V13.00,2013-09-30 17:18:00,
2013-09-30 12:23:00,70.6,60.3,30.03,South,171,6.0,10.0,70,0.00,,SKC,0.00,VWS V13.00,2013-09-30 17:23:00,
2013-09-30 12:28:00,70.6,60.3,30.03,South,171,6.0,10.0,70,0.00,,SKC,0.00,VWS V13.00,2013-09-30 17:28:00,
2013-09-30 12:30:00,72.9,61.7,30.02,WSW,248,2.0,9.0,68,0.00,,SKC,0.00,VWS V13.00,2013-09-30 17:30:00,
2013-09-30 12:33:00,70.6,60.3,30.03,South,171,6.0,10.0,70,0.00,,SKC,0.00,VWS V13.00,2013-09-30 17:33:00,
2013-09-30 12:38:00,70.6,60.3,30.03,South,171,6.0,10.0,70,0.00,,SKC,0.00,VWS V13.00,2013-09-30 17:38:00,
2013-09-30 12:43:00,70.6,60.3,30.03,South,171,6.0,10.0,70,0.00,,SKC,0.00,VWS V13.00,2013-09-30 17:43:00,
2013-09-30 12:48:00,70.6,60.3,30.03,South,171,6.0,10.0,70,0.00,,SKC,0.00,VWS V13.00,2013-09-30 17:48:00,
2013-09-30 12:53:00,70.6,60.3,30.03,South,171,6.0,10.0,70,0.00,,SKC,0.00,VWS V13.00,2013-09-30 17:53:00,
2013-09-30 12:58:00,70.6,60.3,30.03,South,171,6.0,10.0,70,0.00,,SKC,0.00,VWS V13.00,2013-09-30 17:58:00,
2013-09-30 13:00:00,73.3,60.8,30.00,SSW,202,3.0,10.0,65,0.00,,SKC,0.00,VWS V13.00,2013-09-30 18:00:00,
2013-09-30 13:03:00,70.6,60.3,30.03,South,171,6.0,10.0,70,0.00,,SKC,0.00,VWS V13.00,2013-09-30 18:03:00,
2013-09-30 13:08:00,70.6,60.3,30.03,South,171,6.0,10.0,70,0.00,,SKC,0.00,VWS V13.00,2013-09-30 18:08:00,
2013-09-30 13:13:00,70.6,60.3,30.03,South,171,6.0,10.0,70,0.00,,SKC,0.00,VWS V13.00,2013-09-30 18:13:00,
2013-09-30 13:18:00,70.6,60.3,30.03,South,171,6.0,10.0,70,0.00,,SKC,0.00,VWS V13.00,2013-09-30 18:18:00,
2013-09-30 13:23:00,70.6,60.3,30.03,South,171,6.0,10.0,70,0.00,,SKC,0.00,VWS V13.00,2013-09-30 18:23:00,
2013-09-30 13:28:00,70.6,60.3,30.03,South,171,6.0,10.0,70,0.00,,SKC,0.00,VWS V13.00,2013-09-30 18:28:00,
2013-09-30 13:30:00,70.5,63.3,29.99,SSW,202,3.0,9.0,78,0.00,,SKC,0.00,VWS V13.00,2013-09-30 18:30:00,
2013-09-30 13:33:00,70.6,60.3,30.03,South,171,6.0,10.0,70,0.00,,SKC,0.00,VWS V13.00,2013-09-30 18:33:00,
2013-09-30 13:38:00,70.6,60.3,30.03,South,171,6.0,10.0,70,0.00,,SKC,0.00,VWS V13.00,2013-09-30 18:38:00,
2013-09-30 13:43:00,70.6,60.3,30.03,South,171,6.0,10.0,70,0.00,,SKC,0.00,VWS V13.00,2013-09-30 18:43:00,
2013-09-30 13:48:00,70.6,60.3,30.03,South,171,6.0,10.0,70,0.00,,SKC,0.00,VWS V13.00,2013-09-30 18:48:00,
2013-09-30 13:53:00,70.6,60.3,30.03,South,171,6.0,10.0,70,0.00,,SKC,0.00,VWS V13.00,2013-09-30 18:53:00,
2013-09-30 13:58:00,70.6,60.3,30.03,South,171,6.0,10.0,70,0.00,,SKC,0.00,VWS V13.00,2013-09-30 18:58:00,
2013-09-30 14:00:00,71.5,62.4,29.98,South,180,2.0,8.0,73,0.00,,SKC,0.00,VWS V13.00,2013-09-30 19:00:00,
2013-09-30 14:03:00,70.6,60.3,30.03,South,171,6.0,10.0,70,0.00,,SKC,0.00,VWS V13.00,2013-09-30 19:03:00,
2013-09-30 14:08:00,70.6,60.3,30.03,South,171,6.0,10.0,70,0.00,,SKC,0.00,VWS V13.00,2013-09-30 19:08:00,
2013-09-30 14:13:00,70.6,60.3,30.03,South,171,6.0,10.0,70,0.00,,SKC,0.00,VWS V13.00,2013-09-30 19:13:00,
2013-09-30 14:18:00,70.6,60.3,30.03,South,171,6.0,10.0,70,0.00,,SKC,0.00,VWS V13.00,2013-09-30 19:18:00,
2013-09-30 14:23:00,70.6,60.3,30.03,South,171,6.0,10.0,70,0.00,,SKC,0.00,VWS V13.00,2013-09-30 19:23:00,
2013-09-30 14:28:00,70.6,60.3,30.03,South,171,6.0,10.0,70,0.00,,SKC,0.00,VWS V13.00,2013-09-30 19:28:00,
2013-09-30 14:30:00,74.2,63.0,29.96,WNW,292,1.0,8.0,68,0.00,,SKC,0.00,VWS V13.00,2013-09-30 19:30:00,
2013-09-30 14:33:00,70.6,60.3,30.03,South,171,6.0,10.0,70,0.00,,SKC,0.00,VWS V13.00,2013-09-30 19:33:00,
2013-09-30 14:38:00,70.6,60.3,30.03,South,171,6.0,10.0,70,0.00,,SKC,0.00,VWS V13.00,2013-09-30 19:38:00,
2013-09-30 14:43:00,70.6,60.3,30.03,South,171,6.0,10.0,70,0.00,,SKC,0.00,VWS V13.00,2013-09-30 19:43:00,
2013-09-30 14:48:00,70.6,60.3,30.03,South,171,6.0,10.0,70,0.00,,SKC,0.00,VWS V13.00,2013-09-30 19:48:00,
2013-09-30 14:53:00,70.6,60.3,30.03,South,171,6.0,10.0,70,0.00,,SKC,0.00,VWS V13.00,2013-09-30 19:53:00,
2013-09-30 14:58:00,70.6,60.3,30.03,South,171,6.0,10.0,70,0.00,,SKC,0.00,VWS V13.00,2013-09-30 19:58:00,
2013-09-30 15:00:00,74.0,61.5,29.95,South,180,1.0,6.0,65,0.00,,SKC,0.00,VWS V13.00,2013-09-30 20:00:00,
2013-09-30 15:03:00,70.6,60.3,30.03,South,171,6.0,10.0,70,0.00,,SKC,0.00,VWS V13.00,2013-09-30 20:03:00,
2013-09-30 15:08:00,70.6,60.3,30.03,South,171,6.0,10.0,70,0.00,,SKC,0.00,VWS V13.00,2013-09-30 20:08:00,
2013-09-30 15:13:00,70.6,60.3,30.03,South,171,6.0,10.0,70,0.00,,SKC,0.00,VWS V13.00,2013-09-30 20:13:00,
2013-09-30 15:18:00,70.6,60.3,30.03,South,171,6.0,10.0,70,0.00,,SKC,0.00,VWS V13.00,2013-09-30 20:18:00,
2013-09-30 15:23:00,70.6,60.3,30.03,South,171,6.0,10.0,70,0.00,,SKC,0.00,VWS V13.00,2013-09-30 20:23:00,
2013-09-30 15:28:00,70.6,60.3,30.03,South,171,6.0,10.0,70,0.00,,SKC,0.00,VWS V13.00,2013-09-30 20:28:00,
2013-09-30 15:30:00,75.3,61.8,29.95,SSW,202,1.0,7.0,63,0.00,,SKC,0.00,VWS V13.00,2013-09-30 20:30:00,
2013-09-30 15:33:00,70.6,60.3,30.03,South,171,6.0,10.0,70,0.00,,SKC,0.00,VWS V13.00,2013-09-30 20:33:00,
2013-09-30 15:38:00,70.6,60.3,30.03,South,171,6.0,10.0,70,0.00,,SKC,0.00,VWS V13.00,2013-09-30 20:38:00,
2013-09-30 15:43:00,70.6,60.3,30.03,South,171,6.0,10.0,70,0.00,,SKC,0.00,VWS V13.00,2013-09-30 20:43:00,
2013-09-30 15:48:00,70.6,60.3,30.03,South,171,6.0,10.0,70,0.00,,SKC,0.00,VWS V13.00,2013-09-30 20:48:00,
2013-09-30 15:53:00,70.6,60.3,30.03,South,171,6.0,10.0,70,0.00,,SKC,0.00,VWS V13.00,2013-09-30 20:53:00,
2013-09-30 15:58:00,70.6,60.3,30.03,South,171,6.0,10.0,70,0.00,,SKC,0.00,VWS V13.00,2013-09-30 20:58:00,
2013-09-30 16:00:00,74.6,62.1,29.94,SSW,202,4.0,10.0,65,0.00,,SKC,0.00,VWS V13.00,2013-09-30 21:00:00,
2013-09-30 16:03:00,70.6,60.3,30.03,South,171,6.0,10.0,70,0.00,,SKC,0.00,VWS V13.00,2013-09-30 21:03:00,
2013-09-30 16:09:00,70.6,60.3,30.03,South,171,6.0,10.0,70,0.00,,SKC,0.00,VWS V13.00,2013-09-30 21:09:00,
2013-09-30 16:14:00,70.6,60.3,30.03,South,171,6.0,10.0,70,0.00,,SKC,0.00,VWS V13.00,2013-09-30 21:14:00,
2013-09-30 16:19:00,70.6,60.3,30.03,South,171,6.0,10.0,70,0.00,,SKC,0.00,VWS V13.00,2013-09-30 21:19:00,
2013-09-30 16:23:00,70.6,60.3,30.03,South,171,6.0,10.0,70,0.00,,SKC,0.00,VWS V13.00,2013-09-30 21:23:00,
2013-09-30 16:28:00,70.6,60.3,30.03,South,171,6.0,10.0,70,0.00,,SKC,0.00,VWS V13.00,2013-09-30 21:28:00,
2013-09-30 16:30:00,74.6,61.2,29.95,SSW,202,4.0,9.0,63,0.00,,SKC,0.00,VWS V13.00,2013-09-30 21:30:00,
2013-09-30 16:33:00,70.6,60.3,30.03,South,171,6.0,10.0,70,0.00,,SKC,0.00,VWS V13.00,2013-09-30 21:33:00,
2013-09-30 16:38:00,70.6,60.3,30.03,South,171,6.0,10.0,70,0.00,,SKC,0.00,VWS V13.00,2013-09-30 21:38:00,
2013-09-30 16:43:00,70.6,60.3,30.03,South,171,6.0,10.0,70,0.00,,SKC,0.00,VWS V13.00,2013-09-30 21:43:00,
2013-09-30 16:48:00,70.6,60.3,30.03,South,171,6.0,10.0,70,0.00,,SKC,0.00,VWS V13.00,2013-09-30 21:48:00,
2013-09-30 16:53:00,70.6,60.3,30.03,South,171,6.0,10.0,70,0.00,,SKC,0.00,VWS V13.00,2013-09-30 21:53:00,
2013-09-30 16:58:00,70.6,60.3,30.03,South,171,6.0,10.0,70,0.00,,SKC,0.00,VWS V13.00,2013-09-30 21:58:00,
2013-09-30 17:03:00,70.6,60.3,30.03,South,171,6.0,10.0,70,0.00,,SKC,0.00,VWS V13.00,2013-09-30 22:03:00,
2013-09-30 17:08:00,70.6,60.3,30.03,South,171,6.0,10.0,70,0.00,,SKC,0.00,VWS V13.00,2013-09-30 22:08:00,
2013-09-30 17:13:00,70.6,60.3,30.03,South,171,6.0,10.0,70,0.00,,SKC,0.00,VWS V13.00,2013-09-30 22:13:00,
2013-09-30 17:18:00,70.6,60.3,30.03,South,171,6.0,10.0,70,0.00,,SKC,0.00,VWS V13.00,2013-09-30 22:18:00,
2013-09-30 17:23:00,70.6,60.3,30.03,South,171,6.0,10.0,70,0.00,,SKC,0.00,VWS V13.00,2013-09-30 22:23:00,
2013-09-30 17:28:00,70.6,60.3,30.03,South,171,6.0,10.0,70,0.00,,SKC,0.00,VWS V13.00,2013-09-30 22:28:00,
2013-09-30 17:30:00,72.9,60.9,29.96,South,180,2.0,7.0,66,0.00,,SKC,0.00,VWS V13.00,2013-09-30 22:30:00,
2013-09-30 17:33:00,70.6,60.3,30.03,South,171,6.0,10.0,70,0.00,,SKC,0.00,VWS V13.00,2013-09-30 22:33:00,
2013-09-30 17:38:00,70.6,60.3,30.03,South,171,6.0,10.0,70,0.00,,SKC,0.00,VWS V13.00,2013-09-30 22:38:00,
2013-09-30 17:43:00,70.6,60.3,30.03,South,171,6.0,10.0,70,0.00,,SKC,0.00,VWS V13.00,2013-09-30 22:43:00,
2013-09-30 17:48:00,70.6,60.3,30.03,South,171,6.0,10.0,70,0.00,,SKC,0.00,VWS V13.00,2013-09-30 22:48:00,
2013-09-30 17:53:00,70.6,60.3,30.03,South,171,6.0,10.0,70,0.00,,SKC,0.00,VWS V13.00,2013-09-30 22:53:00,
2013-09-30 17:58:00,70.6,60.3,30.03,South,171,6.0,10.0,70,0.00,,SKC,0.00,VWS V13.00,2013-09-30 22:58:00,
2013-09-30 18:00:00,71.5,61.2,29.96,South,180,1.0,4.0,70,0.00,,SKC,0.00,VWS V13.00,2013-09-30 23:00:00,
2013-09-30 18:03:00,70.6,60.3,30.03,South,171,6.0,10.0,70,0.00,,SKC,0.00,VWS V13.00,2013-09-30 23:03:00,
2013-09-30 18:08:00,70.6,60.3,30.03,South,171,6.0,10.0,70,0.00,,SKC,0.00,VWS V13.00,2013-09-30 23:08:00,
2013-09-30 18:13:00,70.6,60.3,30.03,South,171,6.0,10.0,70,0.00,,SKC,0.00,VWS V13.00,2013-09-30 23:13:00,
2013-09-30 18:18:00,70.6,60.3,30.03,South,171,6.0,10.0,70,0.00,,SKC,0.00,VWS V13.00,2013-09-30 23:18:00,
2013-09-30 18:23:00,70.6,60.3,30.03,South,171,6.0,10.0,70,0.00,,SKC,0.00,VWS V13.00,2013-09-30 23:23:00,
2013-09-30 18:28:00,70.6,60.3,30.03,South,171,6.0,10.0,70,0.00,,SKC,0.00,VWS V13.00,2013-09-30 23:28:00,
2013-09-30 18:30:00,68.2,61.5,29.97,South,180,0.0,2.0,79,0.00,,SKC,0.00,VWS V13.00,2013-09-30 23:30:00,
2013-09-30 18:33:00,70.6,60.3,30.03,South,171,6.0,10.0,70,0.00,,SKC,0.00,VWS V13.00,2013-09-30 23:33:00,
2013-09-30 18:38:00,70.6,60.3,30.03,South,171,6.0,10.0,70,0.00,,SKC,0.00,VWS V13.00,2013-09-30 23:38:00,
2013-09-30 18:43:00,70.6,60.3,30.03,South,171,6.0,10.0,70,0.00,,SKC,0.00,VWS V13.00,2013-09-30 23:43:00,
2013-09-30 18:48:00,70.6,60.3,30.03,South,171,6.0,10.0,70,0.00,,SKC,0.00,VWS V13.00,2013-09-30 23:48:00,
2013-09-30 18:53:00,70.6,60.3,30.03,South,171,6.0,10.0,70,0.00,,SKC,0.00,VWS V13.00,2013-09-30 23:53:00,
2013-09-30 18:59:00,70.6,60.3,30.03,South,171,6.0,10.0,70,0.00,,SKC,0.00,VWS V13.00,2013-09-30 23:59:00,
2013-09-30 19:00:00,65.2,60.9,29.98,South,180,0.0,0.0,86,0.00,,SKC,0.00,VWS V13.00,2013-10-01 00:00:00,
2013-09-30 19:04:00,70.6,60.3,30.03,South,171,6.0,10.0,70,0.00,,SKC,0.00,VWS V13.00,2013-10-01 00:04:00,
2013-09-30 19:09:00,70.6,60.3,30.03,South,171,6.0,10.0,70,0.00,,SKC,0.00,VWS V13.00,2013-10-01 00:09:00,
2013-09-30 19:14:00,70.6,60.3,30.03,South,171,6.0,10.0,70,0.00,,SKC,0.00,VWS V13.00,2013-10-01 00:14:00,
2013-09-30 19:19:00,70.6,60.3,30.03,South,171,6.0,10.0,70,0.00,,SKC,0.00,VWS V13.00,2013-10-01 00:19:00,
2013-09-30 19:24:00,70.6,60.3,30.03,South,171,6.0,10.0,70,0.00,,SKC,0.00,VWS V13.00,2013-10-01 00:24:00,
2013-09-30 19:29:00,70.6,60.3,30.03,South,171,6.0,10.0,70,0.00,,SKC,0.00,VWS V13.00,2013-10-01 00:29:00,
2013-09-30 19:30:00,65.5,60.9,29.99,South,180,0.0,0.0,85,0.00,,SKC,0.00,VWS V13.00,2013-10-01 00:30:00,
2013-09-30 19:34:00,70.6,60.3,30.03,South,171,6.0,10.0,70,0.00,,SKC,0.00,VWS V13.00,2013-10-01 00:34:00,
2013-09-30 19:39:00,70.6,60.3,30.03,South,171,6.0,10.0,70,0.00,,SKC,0.00,VWS V13.00,2013-10-01 00:39:00,
2013-09-30 19:44:00,70.6,60.3,30.03,South,171,6.0,10.0,70,0.00,,SKC,0.00,VWS V13.00,2013-10-01 00:44:00,
2013-09-30 19:49:00,70.6,60.3,30.03,South,171,6.0,10.0,70,0.00,,SKC,0.00,VWS V13.00,2013-10-01 00:49:00,
2013-09-30 19:54:00,70.6,60.3,30.03,South,171,6.0,10.0,70,0.00,,SKC,0.00,VWS V13.00,2013-10-01 00:54:00,
2013-09-30 19:59:00,70.6,60.3,30.03,South,171,6.0,10.0,70,0.00,,SKC,0.00,VWS V13.00,2013-10-01 00:59:00,
2013-09-30 20:00:00,63.4,60.4,30.00,South,180,0.0,0.0,90,0.00,,SKC,0.00,VWS V13.00,2013-10-01 01:00:00,
2013-09-30 20:04:00,70.6,60.3,30.03,South,171,6.0,10.0,70,0.00,,SKC,0.00,VWS V13.00,2013-10-01 01:04:00,
2013-09-30 20:09:00,70.6,60.3,30.03,South,171,6.0,10.0,70,0.00,,SKC,0.00,VWS V13.00,2013-10-01 01:09:00,
2013-09-30 20:14:00,70.6,60.3,30.03,South,171,6.0,10.0,70,0.00,,SKC,0.00,VWS V13.00,2013-10-01 01:14:00,
2013-09-30 20:19:00,70.6,60.3,30.03,South,171,6.0,10.0,70,0.00,,SKC,0.00,VWS V13.00,2013-10-01 01:19:00,
2013-09-30 20:23:00,70.6,60.3,30.03,South,171,6.0,10.0,70,0.00,,SKC,0.00,VWS V13.00,2013-10-01 01:23:00,
2013-09-30 20:28:00,70.6,60.3,30.03,South,171,6.0,10.0,70,0.00,,SKC,0.00,VWS V13.00,2013-10-01 01:28:00,
2013-09-30 20:30:00,64.0,60.4,30.00,South,180,0.0,0.0,88,0.00,,SKC,0.00,VWS V13.00,2013-10-01 01:30:00,
2013-09-30 20:33:00,70.6,60.3,30.03,South,171,6.0,10.0,70,0.00,,SKC,0.00,VWS V13.00,2013-10-01 01:33:00,
2013-09-30 20:39:00,70.6,60.3,30.03,South,171,6.0,10.0,70,0.00,,SKC,0.00,VWS V13.00,2013-10-01 01:39:00,
2013-09-30 20:44:00,70.6,60.3,30.03,South,171,6.0,10.0,70,0.00,,SKC,0.00,VWS V13.00,2013-10-01 01:44:00,
2013-09-30 20:49:00,70.6,60.3,30.03,South,171,6.0,10.0,70,0.00,,SKC,0.00,VWS V13.00,2013-10-01 01:49:00,
2013-09-30 20:54:00,70.6,60.3,30.03,South,171,6.0,10.0,70,0.00,,SKC,0.00,VWS V13.00,2013-10-01 01:54:00,
2013-09-30 20:59:00,70.6,60.3,30.03,South,171,6.0,10.0,70,0.00,,SKC,0.00,VWS V13.00,2013-10-01 01:59:00,
2013-09-30 21:00:00,61.9,59.5,30.01,South,180,0.0,0.0,92,0.00,,SKC,0.00,VWS V13.00,2013-10-01 02:00:00,
2013-09-30 21:04:00,70.6,60.3,30.03,South,171,6.0,10.0,70,0.00,,SKC,0.00,VWS V13.00,2013-10-01 02:04:00,
2013-09-30 21:09:00,70.6,60.3,30.03,South,171,6.0,10.0,70,0.00,,SKC,0.00,VWS V13.00,2013-10-01 02:09:00,
2013-09-30 21:14:00,70.6,60.3,30.03,South,171,6.0,10.0,70,0.00,,SKC,0.00,VWS V13.00,2013-10-01 02:14:00,
2013-09-30 21:19:00,70.6,60.3,30.03,South,171,6.0,10.0,70,0.00,,SKC,0.00,VWS V13.00,2013-10-01 02:19:00,
2013-09-30 21:24:00,70.6,60.3,30.03,South,171,6.0,10.0,70,0.00,,SKC,0.00,VWS V13.00,2013-10-01 02:24:00,
2013-09-30 21:29:00,70.6,60.3,30.03,South,171,6.0,10.0,70,0.00,,SKC,0.00,VWS V13.00,2013-10-01 02:29:00,
2013-09-30 21:30:00,60.8,59.4,30.02,South,180,0.0,0.0,95,0.00,,SKC,0.00,VWS V13.00,2013-10-01 02:30:00,
2013-09-30 21:34:00,70.6,60.3,30.03,South,171,6.0,10.0,70,0.00,,SKC,0.00,VWS V13.00,2013-10-01 02:34:00,
2013-09-30 21:39:00,70.6,60.3,30.03,South,171,6.0,10.0,70,0.00,,SKC,0.00,VWS V13.00,2013-10-01 02:39:00,
2013-09-30 21:44:00,70.6,60.3,30.03,South,171,6.0,10.0,70,0.00,,SKC,0.00,VWS V13.00,2013-10-01 02:44:00,
2013-09-30 21:49:00,70.6,60.3,30.03,South,171,6.0,10.0,70,0.00,,SKC,0.00,VWS V13.00,2013-10-01 02:49:00,
2013-09-30 21:54:00,70.6,60.3,30.03,South,171,6.0,10.0,70,0.00,,SKC,0.00,VWS V13.00,2013-10-01 02:54:00,
2013-09-30 21:59:00,70.6,60.3,30.03,South,171,6.0,10.0,70,0.00,,SKC,0.00,VWS V13.00,2013-10-01 02:59:00,
2013-09-30 22:00:00,60.1,59.0,30.02,South,180,0.0,0.0,96,0.00,,SKC,0.00,VWS V13.00,2013-10-01 03:00:00,
2013-09-30 22:04:00,70.6,60.3,30.03,South,171,6.0,10.0,70,0.00,,SKC,0.00,VWS V13.00,2013-10-01 03:04:00,
2013-09-30 22:09:00,70.6,60.3,30.03,South,171,6.0,10.0,70,0.00,,SKC,0.00,VWS V13.00,2013-10-01 03:09:00,
2013-09-30 22:14:00,70.6,60.3,30.03,South,171,6.0,10.0,70,0.00,,SKC,0.00,VWS V13.00,2013-10-01 03:14:00,
2013-09-30 22:19:00,70.6,60.3,30.03,South,171,6.0,10.0,70,0.00,,SKC,0.00,VWS V13.00,2013-10-01 03:19:00,
2013-09-30 22:24:00,70.6,60.3,30.03,South,171,6.0,10.0,70,0.00,,SKC,0.00,VWS V13.00,2013-10-01 03:24:00,
2013-09-30 22:29:00,70.6,60.3,30.03,South,171,6.0,10.0,70,0.00,,SKC,0.00,VWS V13.00,2013-10-01 03:29:00,
2013-09-30 22:30:00,59.5,58.7,30.02,South,180,0.0,0.0,97,0.00,,SKC,0.00,VWS V13.00,2013-10-01 03:30:00,
2013-09-30 22:34:00,70.6,60.3,30.03,South,171,6.0,10.0,70,0.00,,SKC,0.00,VWS V13.00,2013-10-01 03:34:00,
2013-09-30 22:39:00,70.6,60.3,30.03,South,171,6.0,10.0,70,0.00,,SKC,0.00,VWS V13.00,2013-10-01 03:39:00,
2013-09-30 22:44:00,70.6,60.3,30.03,South,171,6.0,10.0,70,0.00,,SKC,0.00,VWS V13.00,2013-10-01 03:44:00,
2013-09-30 22:49:00,70.6,60.3,30.03,South,171,6.0,10.0,70,0.00,,SKC,0.00,VWS V13.00,2013-10-01 03:49:00,
2013-09-30 22:54:00,70.6,60.3,30.03,South,171,6.0,10.0,70,0.00,,SKC,0.00,VWS V13.00,2013-10-01 03:54:00,
2013-09-30 22:59:00,70.6,60.3,30.03,South,171,6.0,10.0,70,0.00,,SKC,0.00,VWS V13.00,2013-10-01 03:59:00,
2013-09-30 23:00:00,60.9,60.0,30.01,South,180,0.0,3.0,97,0.00,,SKC,0.00,VWS V13.00,2013-10-01 04:00:00,
2013-09-30 23:01:00,70.6,60.3,30.03,South,171,6.0,10.0,70,0.00,,SKC,0.00,VWS V13.00,2013-10-01 04:01:00,
2013-09-30 23:06:00,70.6,60.3,30.03,South,171,6.0,10.0,70,0.00,,SKC,0.00,VWS V13.00,2013-10-01 04:06:00,
2013-09-30 23:11:00,70.6,60.3,30.03,South,171,6.0,10.0,70,0.00,,SKC,0.00,VWS V13.00,2013-10-01 04:11:00,
2013-09-30 23:16:00,70.6,60.3,30.03,South,171,6.0,10.0,70,0.00,,SKC,0.00,VWS V13.00,2013-10-01 04:16:00,
2013-09-30 23:21:00,70.6,60.3,30.03,South,171,6.0,10.0,70,0.00,,SKC,0.00,VWS V13.00,2013-10-01 04:21:00,
2013-09-30 23:26:00,70.6,60.3,30.03,South,171,6.0,10.0,70,0.00,,SKC,0.00,VWS V13.00,2013-10-01 04:26:00,
2013-09-30 23:30:00,63.0,59.7,30.00,South,180,0.0,2.0,89,0.00,,SKC,0.00,VWS V13.00,2013-10-01 04:30:00,
2013-09-30 23:31:00,70.6,60.3,30.03,South,171,6.0,10.0,70,0.00,,SKC,0.00,VWS V13.00,2013-10-01 04:31:00,
2013-09-30 23:36:00,70.6,60.3,30.03,South,171,6.0,10.0,70,0.00,,SKC,0.00,VWS V13.00,2013-10-01 04:36:00,
2013-09-30 23:41:00,70.6,60.3,30.03,South,171,6.0,10.0,70,0.00,,SKC,0.00,VWS V13.00,2013-10-01 04:41:00,
2013-09-30 23:46:00,70.6,60.3,30.03,South,171,6.0,10.0,70,0.00,,SKC,0.00,VWS V13.00,2013-10-01 04:46:00,
2013-09-30 23:51:00,70.6,60.3,30.03,South,171,6.0,10.0,70,0.00,,SKC,0.00,VWS V13.00,2013-10-01 04:51:00,
2013-09-30 23:56:00,70.6,60.3,30.03,South,171,6.0,10.0,70,0.00,,SKC,0.00,VWS V13.00,2013-10-01 04:56:00,